createdAt,value
2023-02-11T00:00:02.026Z,171.345
2023-02-11T00:05:02.358Z,364.877
2023-02-11T00:10:02.114Z,593.446
2023-02-11T00:15:02.104Z,557.878
2023-02-11T00:20:02.087Z,572.211
2023-02-11T00:25:02.066Z,543.769
2023-02-11T00:30:02.104Z,311.043
2023-02-11T00:35:02.068Z,303.991
2023-02-11T00:40:03.857Z,200.053
2023-02-11T00:45:02.086Z,180.25900000000001
2023-02-11T00:50:02.089Z,1804.227
2023-02-11T00:55:02.146Z,2013.4950000000001
2023-02-11T01:00:02.117Z,2500.804
2023-02-11T01:05:02.233Z,2682.078
2023-02-11T01:10:02.091Z,3160.64
2023-02-11T01:15:02.069Z,1594.71
2023-02-11T01:20:02.283Z,397.82300000000004
2023-02-11T01:25:02.366Z,209.597
2023-02-11T01:30:02.291Z,173.842
2023-02-11T01:35:02.249Z,194.826
2023-02-11T01:40:02.281Z,194.33100000000002
2023-02-11T01:45:02.279Z,194.104
2023-02-11T01:50:02.287Z,195.391
2023-02-11T01:55:02.335Z,601.381
2023-02-11T02:00:02.241Z,690.995
2023-02-11T02:05:02.193Z,606.777
2023-02-11T02:10:02.088Z,536.147
2023-02-11T02:15:02.199Z,171.114
2023-02-11T02:20:02.227Z,171.149
2023-02-11T02:25:02.149Z,171.126
2023-02-11T02:30:02.187Z,184.379
2023-02-11T02:35:02.184Z,666.865
2023-02-11T02:40:02.162Z,2287.324
2023-02-11T02:45:02.216Z,2689.75
2023-02-11T02:50:02.209Z,2620.033
2023-02-11T02:55:02.194Z,640.097
2023-02-11T03:00:02.239Z,578.195
2023-02-11T03:05:02.208Z,2917.692
2023-02-11T03:10:02.248Z,4843.639
2023-02-11T03:15:02.206Z,4830.779
2023-02-11T03:20:02.198Z,4824.335
2023-02-11T03:25:02.209Z,4837.061
2023-02-11T03:30:02.324Z,4929.509
2023-02-11T03:35:02.256Z,5172.825
2023-02-11T03:40:02.227Z,5342.741
2023-02-11T03:45:02.234Z,5230.8460000000005
2023-02-11T03:50:02.222Z,5199.929
2023-02-11T03:55:02.217Z,4862.557
2023-02-11T04:00:02.294Z,4851.896
2023-02-11T04:05:02.231Z,4851.567
2023-02-11T04:10:02.192Z,4858.572
2023-02-11T04:15:02.220Z,5050.703
2023-02-11T04:20:02.279Z,7016.506
2023-02-11T04:25:02.285Z,7263.993
2023-02-11T04:30:02.524Z,7389.2970000000005
2023-02-11T04:35:02.426Z,7803.814
2023-02-11T04:40:02.444Z,5746.802
2023-02-11T04:45:02.414Z,4546.555
2023-02-11T04:50:02.463Z,4038.0640000000003
2023-02-11T04:55:02.391Z,3631.1710000000003
2023-02-11T05:00:02.481Z,3319.471
2023-02-11T05:05:02.500Z,3008.035
2023-02-11T05:10:02.482Z,323.95300000000003
2023-02-11T05:15:02.463Z,581.474
2023-02-11T05:20:02.445Z,587.8530000000001
2023-02-11T05:25:02.420Z,527.242
2023-02-11T05:30:02.419Z,501.106
2023-02-11T05:35:02.421Z,187.673
2023-02-11T05:40:02.383Z,169.63400000000001
2023-02-11T05:45:02.350Z,170.263
2023-02-11T05:50:02.331Z,270.581
2023-02-11T05:55:02.405Z,285.385
2023-02-11T06:00:02.404Z,280.084
2023-02-11T06:05:02.405Z,557.146
2023-02-11T06:10:02.317Z,789.993
2023-02-11T06:15:02.390Z,2544.1530000000002
2023-02-11T06:20:02.383Z,2482.143
2023-02-11T06:25:02.601Z,2317.956
2023-02-11T06:30:02.405Z,2907.6240000000003
2023-02-11T06:35:02.391Z,301.615
2023-02-11T06:40:02.389Z,311.226
2023-02-11T06:45:02.394Z,315.585
2023-02-11T06:50:02.379Z,269.943
2023-02-11T06:55:02.410Z,568.58
2023-02-11T07:00:02.482Z,589.174
2023-02-11T07:05:02.404Z,516.109
2023-02-11T07:10:02.351Z,392.693
2023-02-11T07:15:02.460Z,195.577
2023-02-11T07:20:02.398Z,203.445
2023-02-11T07:25:02.536Z,315.044
2023-02-11T07:30:03.404Z,308.1
2023-02-11T07:35:02.480Z,303.378
2023-02-11T07:40:02.452Z,318.315
2023-02-11T07:45:02.448Z,612.62
2023-02-11T07:50:02.424Z,651.0360000000001
2023-02-11T07:55:04.762Z,556.909
2023-02-11T08:00:02.495Z,617.748
2023-02-11T08:05:02.559Z,2293.137
2023-02-11T08:10:02.496Z,2401.036
2023-02-11T08:15:02.423Z,2644.748
2023-02-11T08:20:02.468Z,3258.022
2023-02-11T08:25:02.645Z,1058.102
2023-02-11T08:30:02.628Z,1445.871
2023-02-11T08:35:02.623Z,1349.038
2023-02-11T08:40:02.646Z,1537.6390000000001
2023-02-11T08:45:02.613Z,664.001
2023-02-11T08:50:02.646Z,407.821
2023-02-11T08:55:02.564Z,1001.44
2023-02-11T09:00:02.610Z,1008.197
2023-02-11T09:05:02.591Z,549.641
2023-02-11T09:10:02.563Z,785.767
2023-02-11T09:15:02.517Z,674.751
2023-02-11T09:20:02.454Z,805.565
2023-02-11T09:25:02.541Z,822.2710000000001
2023-02-11T09:30:02.536Z,460.08
2023-02-11T09:35:02.520Z,739.177
2023-02-11T09:40:02.557Z,427.476
2023-02-11T09:45:02.541Z,2062.1910000000003
2023-02-11T09:50:02.496Z,2895.029
2023-02-11T09:55:02.552Z,2583.2400000000002
2023-02-11T10:00:02.605Z,826.415
2023-02-11T10:05:02.614Z,2911.907
2023-02-11T10:10:02.590Z,2342.914
2023-02-11T10:15:02.566Z,2602.762
2023-02-11T10:20:02.557Z,4308.428
2023-02-11T10:25:02.712Z,4994.567
2023-02-11T10:30:02.633Z,7420.741
2023-02-11T10:35:02.580Z,7009.335
2023-02-11T10:40:02.616Z,2449.118
2023-02-11T10:45:02.599Z,730.183
2023-02-11T10:50:02.592Z,442.483
2023-02-11T10:55:02.583Z,1037.3990000000001
2023-02-11T11:00:02.683Z,327.396
2023-02-11T11:05:02.688Z,460.19800000000004
2023-02-11T11:10:02.649Z,564.743
2023-02-11T11:15:02.565Z,909.099
2023-02-11T11:20:02.635Z,1101.0240000000001
2023-02-11T11:25:02.776Z,538.903
2023-02-11T11:30:02.690Z,448.693
2023-02-11T11:35:02.633Z,478.647
2023-02-11T11:40:02.615Z,469.535
2023-02-11T11:45:02.645Z,384.789
2023-02-11T11:50:02.608Z,497.665
2023-02-11T11:55:02.577Z,476.507
2023-02-11T12:00:02.904Z,790.6460000000001
2023-02-11T12:05:02.687Z,919.484
2023-02-11T12:10:02.670Z,502.922
2023-02-11T12:15:00.744Z,425.483
2023-02-11T12:20:00.778Z,1073.637
2023-02-11T12:25:00.787Z,468.574
2023-02-11T12:30:00.784Z,432.136
2023-02-11T12:35:01.007Z,498.44
2023-02-11T12:40:00.766Z,609.9830000000001
2023-02-11T12:45:00.780Z,591.639
2023-02-11T12:50:00.706Z,951.26
2023-02-11T12:55:00.718Z,743.9300000000001
2023-02-11T13:00:00.954Z,417.675
2023-02-11T13:05:01.040Z,484.26300000000003
2023-02-11T13:15:01.099Z,2450.585
2023-02-11T13:20:00.929Z,2404.149
2023-02-11T13:25:00.958Z,3082.588
2023-02-11T13:30:03.832Z,2297.46
2023-02-11T13:35:00.993Z,803.186
2023-02-11T13:40:00.923Z,831.684
2023-02-11T13:45:01.144Z,488.543
2023-02-11T13:50:00.987Z,371.238
2023-02-11T13:55:00.963Z,460.363
2023-02-11T14:00:00.970Z,386.636
2023-02-11T14:05:00.918Z,450.357
2023-02-11T14:10:00.850Z,370.945
2023-02-11T14:15:02.953Z,559.121
2023-02-11T14:20:00.852Z,520.9060000000001
2023-02-11T14:25:00.926Z,944.314
2023-02-11T14:30:01.257Z,578.2860000000001
2023-02-11T14:35:00.910Z,489.171
2023-02-11T14:40:00.874Z,1025.527
2023-02-11T14:45:00.881Z,1413.657
2023-02-11T14:50:00.876Z,450.319
2023-02-11T14:55:00.845Z,1175.5240000000001
2023-02-11T15:00:00.947Z,3141.35
2023-02-11T15:05:00.903Z,4685.367
2023-02-11T15:10:00.865Z,4979.691
2023-02-11T15:15:00.891Z,4513.407
2023-02-11T15:20:00.880Z,1359.09
2023-02-11T15:25:00.878Z,689.585
2023-02-11T15:30:00.941Z,1947.519
2023-02-11T15:35:00.929Z,849.926
2023-02-11T15:40:00.896Z,1744.579
2023-02-11T15:45:01.012Z,832.748
2023-02-11T15:50:00.952Z,2194.284
2023-02-11T15:55:00.933Z,2954.855
2023-02-11T16:00:01.181Z,3517.53
2023-02-11T16:05:01.091Z,3486.572
2023-02-11T16:10:01.130Z,3809.26
2023-02-11T16:15:01.119Z,2866.705
2023-02-11T16:20:01.107Z,2589.038
2023-02-11T16:25:01.044Z,2652.163
2023-02-11T16:30:01.266Z,2721.695
2023-02-11T16:35:01.378Z,3183.0170000000003
2023-02-11T16:40:01.033Z,3172.901
2023-02-11T16:45:01.137Z,1607.189
2023-02-11T16:50:01.111Z,475.35900000000004
2023-02-11T16:55:01.460Z,849.3870000000001
2023-02-11T17:00:01.129Z,755.592
2023-02-11T17:05:01.003Z,792.003
2023-02-11T17:10:00.971Z,770.468
2023-02-11T17:15:01.128Z,907.139
2023-02-11T17:20:01.008Z,934.398
2023-02-11T17:25:01.040Z,694.184
2023-02-11T17:30:01.039Z,564.856
2023-02-11T17:35:01.061Z,565.524
2023-02-11T17:40:00.994Z,1939.121
2023-02-11T17:45:00.934Z,2856.0080000000003
2023-02-11T17:50:01.143Z,3274.0750000000003
2023-02-11T17:55:01.028Z,2215.7400000000002
2023-02-11T18:00:01.051Z,1094.636
2023-02-11T18:05:01.026Z,2091.112
2023-02-11T18:10:01.054Z,2595.268
2023-02-11T18:15:01.056Z,1071.9
2023-02-11T18:20:01.025Z,714.226
2023-02-11T18:25:01.016Z,976.6080000000001
2023-02-11T18:30:01.107Z,2704.487
2023-02-11T18:35:01.069Z,2660.475
2023-02-11T18:40:01.057Z,2772.14
2023-02-11T18:45:01.077Z,2787.338
2023-02-11T18:50:01.051Z,3450.692
2023-02-11T18:55:01.095Z,2657.866
2023-02-11T19:00:01.107Z,1160.6100000000001
2023-02-11T19:05:01.079Z,1072.269
2023-02-11T19:10:01.083Z,967.309
2023-02-11T19:15:01.058Z,675.759
2023-02-11T19:20:01.081Z,656.985
2023-02-11T19:25:01.091Z,910.488
2023-02-11T19:30:01.150Z,2952.358
2023-02-11T19:35:01.126Z,4188.975
2023-02-11T19:40:01.123Z,2936.3
2023-02-11T19:45:01.111Z,4675.28
2023-02-11T19:50:01.116Z,4502.791
2023-02-11T19:55:01.130Z,3062.518
2023-02-11T20:00:01.178Z,4559.5560000000005
2023-02-11T20:05:01.135Z,4814.508
2023-02-11T20:10:01.148Z,3277.84
2023-02-11T20:15:01.124Z,2061.362
2023-02-11T20:20:01.132Z,655.405
2023-02-11T20:25:01.120Z,626.009
2023-02-11T20:30:01.189Z,700.194
2023-02-11T20:35:01.147Z,652.041
2023-02-11T20:40:01.387Z,698.195
2023-02-11T20:45:01.350Z,690.513
2023-02-11T20:50:01.455Z,2414.638
2023-02-11T20:55:01.360Z,4032.784
2023-02-11T21:00:01.325Z,4139.77
2023-02-11T21:05:01.305Z,3988.879
2023-02-11T21:10:01.390Z,3442.814
2023-02-11T21:15:01.314Z,3072.678
2023-02-11T21:20:01.367Z,2599.672
2023-02-11T21:25:01.304Z,2457.876
2023-02-11T21:30:01.546Z,2652.444
2023-02-11T21:35:02.349Z,3011.933
2023-02-11T21:40:01.358Z,531.443
2023-02-11T21:45:01.316Z,333.672
2023-02-11T21:50:01.305Z,400.046
2023-02-11T21:55:01.327Z,430.273
2023-02-11T22:00:01.367Z,874.006
2023-02-11T22:05:01.357Z,2337.237
2023-02-11T22:10:01.335Z,2254.964
2023-02-11T22:15:01.322Z,2275.909
2023-02-11T22:20:01.379Z,2301.8540000000003
2023-02-11T22:25:01.282Z,2593.761
2023-02-11T22:30:01.311Z,2441.303
2023-02-11T22:35:01.319Z,218.88400000000001
2023-02-11T22:40:01.286Z,334.01300000000003
2023-02-11T22:45:01.286Z,345.652
2023-02-11T22:50:01.269Z,354.823
2023-02-11T22:55:01.310Z,240.929
2023-02-11T23:00:01.309Z,220.784
2023-02-11T23:05:01.293Z,200.272
2023-02-11T23:10:01.301Z,1949.496
2023-02-11T23:15:03.239Z,2175.17
2023-02-11T23:20:01.282Z,1967.887
2023-02-11T23:25:01.302Z,2142.558
2023-02-11T23:30:01.308Z,2430.154
2023-02-11T23:35:01.333Z,2376.14
2023-02-11T23:40:01.317Z,2315.649
2023-02-11T23:45:01.362Z,2303.472
2023-02-11T23:50:01.324Z,2414.223
2023-02-11T23:55:01.271Z,2784.808
